Terminal Aerodrome Forecast
Issued by NWS Portland, ME

Home | Current Version | Previous Version | Text Only | Print | Product List | Glossary On
Versions: 1 2 3 4 5 6 7 8 9 10 11 12 13 14 15 16 17 18 19 20 21 22 23
313
FTUS41 KGYX 291006 AAC
TAFCON
TAF AMD
KCON 291006Z 2910/3006 10005KT P6SM OVC008
     FM291500 10006KT 3SM -SHRA OVC008
     FM300400 10003KT 1 1/2SM -DZ BR OVC005=

USA.gov is the U.S. government's official web portal to all federal, state and local government web resources and services.